createdAt,value
2023-04-15T00:01:07.903Z,12.37
2023-04-15T00:03:35.685Z,11.52
2023-04-15T00:06:03.804Z,10.43
2023-04-15T00:08:31.232Z,9.77
2023-04-15T00:11:03.126Z,11.85
2023-04-15T00:13:30.874Z,11.00
2023-04-15T00:15:58.222Z,10.15
2023-04-15T00:18:25.816Z,11.20
2023-04-15T00:20:53.574Z,11.80
2023-04-15T00:23:20.803Z,11.15
2023-04-15T00:25:47.937Z,9.68
2023-04-15T00:28:15.159Z,10.63
2023-04-15T00:30:42.725Z,10.80
2023-04-15T00:33:10.069Z,11.93
2023-04-15T00:35:37.589Z,10.07
2023-04-15T00:38:05.883Z,10.77
2023-04-15T00:40:33.468Z,9.85
2023-04-15T00:43:00.530Z,10.68
2023-04-15T00:45:28.285Z,10.90
2023-04-15T00:47:55.966Z,9.88
2023-04-15T00:50:23.221Z,11.73
2023-04-15T00:52:50.977Z,9.80
2023-04-15T00:55:19.301Z,9.68
2023-04-15T00:57:46.923Z,9.40
2023-04-15T01:00:14.509Z,9.30
2023-04-15T01:02:41.609Z,10.38
2023-04-15T01:05:09.510Z,9.85
2023-04-15T01:07:36.993Z,9.55
2023-04-15T01:10:04.991Z,9.33
2023-04-15T01:12:33.968Z,7.95
2023-04-15T01:15:02.368Z,9.82
2023-04-15T01:17:30.188Z,9.05
2023-04-15T01:19:58.328Z,10.23
2023-04-15T01:22:27.613Z,9.93
2023-04-15T01:25:02.728Z,9.77
2023-04-15T01:27:30.389Z,9.80
2023-04-15T01:29:57.634Z,8.15
2023-04-15T01:32:25.118Z,8.80
2023-04-15T01:34:52.244Z,8.63
2023-04-15T01:37:19.384Z,9.50
2023-04-15T01:39:46.436Z,8.38
2023-04-15T01:42:13.746Z,8.57
2023-04-15T01:44:40.814Z,9.02
2023-04-15T01:47:08.603Z,9.80
2023-04-15T01:49:36.173Z,7.65
2023-04-15T01:52:03.088Z,8.35
2023-04-15T01:54:30.145Z,9.45
2023-04-15T01:56:57.068Z,8.80
2023-04-15T01:59:24.224Z,8.73
2023-04-15T02:01:52.522Z,8.05
2023-04-15T02:04:19.463Z,8.73
2023-04-15T02:06:46.507Z,7.95
2023-04-15T02:09:13.567Z,9.05
2023-04-15T02:11:41.159Z,8.93
2023-04-15T02:14:08.453Z,8.88
2023-04-15T02:16:35.653Z,8.98
2023-04-15T02:19:03.973Z,8.45
2023-04-15T02:21:31.081Z,8.70
2023-04-15T02:23:58.608Z,8.10
2023-04-15T02:26:25.763Z,7.37
2023-04-15T02:28:53.080Z,8.52
2023-04-15T02:31:21.837Z,8.38
2023-04-15T02:33:49.458Z,7.53
2023-04-15T02:36:16.632Z,6.70
2023-04-15T02:38:43.503Z,9.50
2023-04-15T02:41:10.715Z,9.90
2023-04-15T02:43:40.025Z,6.93
2023-04-15T02:46:07.376Z,7.97
2023-04-15T02:48:34.583Z,8.83
2023-04-15T02:51:15.561Z,8.38
2023-04-15T02:53:43.003Z,8.10
2023-04-15T02:56:10.013Z,9.18
2023-04-15T02:58:38.009Z,7.93
2023-04-15T03:01:05.495Z,8.30
2023-04-15T03:03:32.816Z,8.00
2023-04-15T03:06:11.805Z,7.87
2023-04-15T03:08:38.780Z,9.32
2023-04-15T03:11:05.799Z,9.25
2023-04-15T03:13:32.664Z,10.30
2023-04-15T03:15:59.687Z,7.50
2023-04-15T03:18:26.739Z,9.63
2023-04-15T03:20:53.592Z,9.77
2023-04-15T03:23:20.835Z,11.02
2023-04-15T03:25:47.724Z,9.77
2023-04-15T03:28:14.611Z,10.23
2023-04-15T03:30:41.981Z,10.77
2023-04-15T03:33:09.213Z,9.40
2023-04-15T03:35:36.340Z,10.05
2023-04-15T03:38:03.351Z,8.27
2023-04-15T03:40:30.455Z,10.20
2023-04-15T03:42:57.651Z,11.10
2023-04-15T03:45:24.613Z,10.50
2023-04-15T03:47:51.773Z,10.48
2023-04-15T03:50:19.125Z,10.50
2023-04-15T03:52:46.585Z,8.88
2023-04-15T03:55:14.557Z,10.35
2023-04-15T03:57:41.613Z,9.77
2023-04-15T04:00:10.704Z,10.77
2023-04-15T04:02:37.970Z,10.33
2023-04-15T04:05:05.243Z,8.95
2023-04-15T04:07:32.417Z,9.52
2023-04-15T04:09:59.435Z,10.70
2023-04-15T04:12:26.504Z,9.55
2023-04-15T04:14:53.474Z,9.60
2023-04-15T04:17:20.692Z,9.38
2023-04-15T04:19:48.429Z,10.52
2023-04-15T04:22:15.858Z,10.68
2023-04-15T04:24:42.689Z,10.77
2023-04-15T04:27:09.627Z,11.23
2023-04-15T04:29:36.943Z,9.50
2023-04-15T04:32:04.334Z,9.18
2023-04-15T04:34:32.612Z,10.05
2023-04-15T04:36:59.703Z,10.82
2023-04-15T04:39:26.790Z,12.23
2023-04-15T04:41:54.096Z,13.05
2023-04-15T04:44:20.957Z,12.27
2023-04-15T04:46:47.961Z,15.35
2023-04-15T04:49:15.125Z,12.93
2023-04-15T04:51:42.321Z,8.97
2023-04-15T04:54:09.916Z,10.90
2023-04-15T04:56:39.294Z,10.98
2023-04-15T04:59:07.978Z,9.93
2023-04-15T05:01:35.161Z,11.25
2023-04-15T05:04:02.297Z,9.17
2023-04-15T05:06:30.648Z,8.23
2023-04-15T05:08:58.555Z,9.07
2023-04-15T05:11:25.896Z,9.93
2023-04-15T05:13:52.866Z,9.02
2023-04-15T05:16:20.669Z,9.53
2023-04-15T05:18:47.942Z,10.27
2023-04-15T05:21:15.206Z,11.65
2023-04-15T05:23:42.470Z,9.15
2023-04-15T05:26:09.551Z,9.55
2023-04-15T05:28:36.757Z,9.43
2023-04-15T05:31:03.993Z,10.80
2023-04-15T05:33:31.535Z,8.38
2023-04-15T05:35:58.589Z,9.27
2023-04-15T05:38:26.208Z,8.50
2023-04-15T05:40:53.740Z,9.70
2023-04-15T05:43:20.923Z,10.15
2023-04-15T05:45:47.864Z,8.95
2023-04-15T05:48:15.058Z,9.40
2023-04-15T05:50:42.654Z,9.82
2023-04-15T05:53:09.794Z,10.87
2023-04-15T05:55:37.013Z,10.30
2023-04-15T05:58:04.285Z,11.55
2023-04-15T06:00:31.375Z,9.35
2023-04-15T06:02:59.205Z,10.77
2023-04-15T06:05:26.296Z,10.23
2023-04-15T06:07:53.425Z,10.50
2023-04-15T06:10:20.600Z,8.02
2023-04-15T06:12:47.813Z,7.70
2023-04-15T06:15:15.378Z,7.75
2023-04-15T06:17:43.023Z,6.37
2023-04-15T06:20:11.480Z,8.93
2023-04-15T06:22:39.492Z,6.95
2023-04-15T06:25:08.821Z,10.52
2023-04-15T06:27:35.985Z,8.02
2023-04-15T06:30:04.363Z,7.47
2023-04-15T06:32:32.596Z,8.90
2023-04-15T06:34:59.761Z,7.00
2023-04-15T06:37:26.862Z,6.93
2023-04-15T06:39:54.041Z,6.30
2023-04-15T06:42:21.309Z,7.20
2023-04-15T06:44:48.338Z,6.57
2023-04-15T06:47:15.563Z,8.73
2023-04-15T06:49:43.306Z,7.75
2023-04-15T06:52:11.454Z,7.62
2023-04-15T06:54:38.658Z,8.63
2023-04-15T06:57:07.283Z,6.53
2023-04-15T06:59:34.207Z,7.20
2023-04-15T07:02:01.633Z,7.12
2023-04-15T07:04:28.602Z,6.37
2023-04-15T07:06:58.275Z,6.10
2023-04-15T07:09:25.814Z,5.97
2023-04-15T07:11:53.389Z,5.78
2023-04-15T07:14:21.140Z,15.00
2023-04-15T07:16:48.587Z,8.15
2023-04-15T07:19:15.924Z,6.43
2023-04-15T07:21:43.073Z,5.35
2023-04-15T07:24:10.641Z,5.90
2023-04-15T07:26:37.782Z,5.37
2023-04-15T07:29:05.158Z,5.22
2023-04-15T07:31:32.532Z,5.77
2023-04-15T07:34:00.025Z,4.72
2023-04-15T07:36:27.069Z,4.32
2023-04-15T07:38:55.412Z,5.82
2023-04-15T07:41:22.534Z,4.25
2023-04-15T07:43:50.188Z,3.37
2023-04-15T07:46:17.297Z,4.97
2023-04-15T07:48:44.544Z,5.60
2023-04-15T07:51:13.053Z,5.47
2023-04-15T07:53:40.079Z,5.60
2023-04-15T07:56:07.560Z,3.93
2023-04-15T07:58:35.037Z,4.75
2023-04-15T08:01:02.088Z,3.50
2023-04-15T08:03:29.503Z,5.03
2023-04-15T08:05:57.880Z,4.15
2023-04-15T08:08:26.485Z,4.53
2023-04-15T08:10:53.753Z,4.75
2023-04-15T08:13:21.118Z,5.50
2023-04-15T08:16:13.880Z,4.50
2023-04-15T08:18:42.393Z,5.40
2023-04-15T08:21:09.546Z,3.90
2023-04-15T08:23:37.168Z,4.87
2023-04-15T08:26:04.404Z,3.42
2023-04-15T08:28:31.588Z,3.10
2023-04-15T08:30:59.099Z,5.80
2023-04-15T08:33:26.244Z,3.30
2023-04-15T08:35:53.396Z,4.47
2023-04-15T08:38:20.412Z,3.33
2023-04-15T08:40:47.835Z,6.82
2023-04-15T08:43:28.780Z,5.28
2023-04-15T08:45:56.102Z,3.27
2023-04-15T08:48:24.697Z,3.33
2023-04-15T08:50:52.243Z,2.75
2023-04-15T08:53:19.307Z,5.47
2023-04-15T08:55:51.274Z,3.80
2023-04-15T08:58:19.958Z,3.03
2023-04-15T09:00:47.466Z,3.62
2023-04-15T09:03:15.239Z,3.03
2023-04-15T09:05:42.547Z,3.87
2023-04-15T09:08:10.004Z,3.45
2023-04-15T09:10:37.937Z,2.07
2023-04-15T09:13:04.851Z,3.42
2023-04-15T09:15:33.271Z,2.15
2023-04-15T09:18:00.918Z,1.45
2023-04-15T09:20:28.071Z,2.15
2023-04-15T09:22:55.682Z,2.23
2023-04-15T09:25:22.715Z,1.23
2023-04-15T09:27:50.705Z,0.98
2023-04-15T09:30:18.092Z,0.73
2023-04-15T09:33:11.087Z,1.33
2023-04-15T09:35:38.606Z,2.57
2023-04-15T09:38:08.911Z,1.17
2023-04-15T09:40:41.203Z,0.93
2023-04-15T09:43:13.003Z,1.92
2023-04-15T09:45:48.634Z,2.10
2023-04-15T09:48:27.345Z,2.47
2023-04-15T09:50:58.484Z,2.42
2023-04-15T09:53:26.561Z,1.75
2023-04-15T09:55:56.327Z,0.77
2023-04-15T09:58:32.600Z,0.82
2023-04-15T10:01:01.907Z,2.00
2023-04-15T10:03:32.186Z,0.95
2023-04-15T10:06:00.871Z,0.73
2023-04-15T10:08:30.744Z,0.80
2023-04-15T10:10:58.444Z,0.45
2023-04-15T10:13:29.588Z,0.60
2023-04-15T10:16:10.966Z,1.15
2023-04-15T10:18:44.060Z,0.70
2023-04-15T10:21:11.916Z,1.27
2023-04-15T10:23:39.962Z,0.98
2023-04-15T10:26:08.447Z,0.87
2023-04-15T10:28:35.571Z,0.80
2023-04-15T10:31:04.991Z,1.20
2023-04-15T10:33:32.895Z,1.45
2023-04-15T10:36:01.334Z,1.45
2023-04-15T10:38:39.445Z,0.87
2023-04-15T10:41:22.814Z,0.70
2023-04-15T10:43:51.742Z,0.93
2023-04-15T10:46:21.772Z,1.10
2023-04-15T10:48:50.347Z,2.05
2023-04-15T10:51:26.934Z,1.07
2023-04-15T10:53:59.561Z,1.10
2023-04-15T10:56:28.866Z,2.50
2023-04-15T10:58:59.599Z,3.03
2023-04-15T11:01:56.595Z,2.97
2023-04-15T11:04:53.422Z,1.73
2023-04-15T11:07:48.577Z,1.37
2023-04-15T11:10:18.820Z,1.50
2023-04-15T11:12:46.661Z,9.15
2023-04-15T11:15:33.809Z,1.62
2023-04-15T11:18:30.728Z,2.43
2023-04-15T11:21:06.779Z,2.90
2023-04-15T11:23:46.970Z,6.00
2023-04-15T11:26:13.964Z,5.82
2023-04-15T11:28:43.397Z,1.58
2023-04-15T11:31:16.687Z,0.90
2023-04-15T11:33:59.451Z,1.08
2023-04-15T11:36:28.086Z,1.77
2023-04-15T11:38:56.018Z,1.20
2023-04-15T11:41:23.870Z,0.60
2023-04-15T11:43:52.725Z,0.70
2023-04-15T11:46:22.763Z,1.40
2023-04-15T11:48:50.338Z,1.02
2023-04-15T11:51:18.694Z,4.30
2023-04-15T11:53:47.795Z,0.95
2023-04-15T11:56:23.329Z,5.63
2023-04-15T11:58:54.754Z,1.67
2023-04-15T12:01:21.933Z,9.23
2023-04-15T12:03:50.403Z,12.57
2023-04-15T12:06:23.590Z,14.60
2023-04-15T12:09:16.751Z,7.20
2023-04-15T12:11:49.794Z,23.30
2023-04-15T12:14:30.752Z,3.15
2023-04-15T12:17:03.302Z,3.30
2023-04-15T12:19:42.390Z,1.15
2023-04-15T12:22:11.763Z,4.10
2023-04-15T12:24:39.566Z,1.85
2023-04-15T12:27:08.709Z,1.20
2023-04-15T12:29:38.415Z,0.93
2023-04-15T12:32:08.612Z,0.80
2023-04-15T12:34:38.176Z,0.87
2023-04-15T12:37:07.818Z,1.12
2023-04-15T12:39:40.716Z,1.67
2023-04-15T12:42:08.436Z,0.43
2023-04-15T12:44:36.799Z,0.65
2023-04-15T12:47:04.452Z,0.60
2023-04-15T12:49:32.871Z,1.05
2023-04-15T12:52:02.309Z,0.95
2023-04-15T12:54:30.925Z,1.65
2023-04-15T12:56:58.859Z,0.82
2023-04-15T12:59:26.058Z,0.80
2023-04-15T13:01:54.148Z,3.00
2023-04-15T13:04:21.907Z,0.50
2023-04-15T13:06:49.552Z,1.92
2023-04-15T13:09:16.642Z,1.17
2023-04-15T13:11:43.762Z,0.83
2023-04-15T13:14:13.878Z,0.60
2023-04-15T13:16:41.563Z,0.30
2023-04-15T13:19:08.787Z,0.57
2023-04-15T13:21:36.754Z,0.77
2023-04-15T13:24:05.146Z,1.83
2023-04-15T13:26:33.117Z,2.47
2023-04-15T13:29:01.498Z,0.90
2023-04-15T13:31:29.427Z,1.15
2023-04-15T13:33:57.680Z,1.55
2023-04-15T13:36:24.891Z,0.33
2023-04-15T13:38:52.566Z,1.20
2023-04-15T13:41:21.359Z,2.20
2023-04-15T13:43:48.660Z,0.75
2023-04-15T13:46:16.279Z,1.50
2023-04-15T13:48:43.892Z,1.40
2023-04-15T13:51:11.158Z,2.42
2023-04-15T13:53:39.763Z,4.82
2023-04-15T13:56:10.610Z,1.00
2023-04-15T13:58:41.785Z,0.85
2023-04-15T14:01:09.313Z,1.93
2023-04-15T14:03:36.921Z,3.00
2023-04-15T14:06:05.752Z,2.65
2023-04-15T14:08:33.171Z,1.58
2023-04-15T14:11:00.801Z,2.22
2023-04-15T14:13:27.946Z,3.23
2023-04-15T14:15:55.354Z,2.10
2023-04-15T14:18:22.945Z,1.98
2023-04-15T14:20:50.116Z,2.78
2023-04-15T14:23:17.779Z,2.90
2023-04-15T14:25:46.828Z,2.80
2023-04-15T14:28:15.960Z,2.05
2023-04-15T14:30:43.742Z,1.77
2023-04-15T14:33:10.970Z,1.87
2023-04-15T14:35:39.163Z,2.55
2023-04-15T14:38:10.940Z,2.93
2023-04-15T14:40:38.837Z,5.53
2023-04-15T14:43:06.094Z,2.78
2023-04-15T14:45:33.193Z,2.72
2023-04-15T14:48:00.628Z,3.78
2023-04-15T14:50:28.269Z,2.50
2023-04-15T14:52:55.746Z,3.35
2023-04-15T14:55:23.776Z,2.78
2023-04-15T14:57:51.602Z,2.35
2023-04-15T15:00:19.036Z,2.72
2023-04-15T15:02:47.646Z,3.20
2023-04-15T15:05:14.840Z,3.55
2023-04-15T15:07:42.114Z,4.82
2023-04-15T15:10:09.163Z,3.83
2023-04-15T15:12:36.340Z,3.65
2023-04-15T15:15:15.475Z,3.17
2023-04-15T15:17:46.904Z,2.47
2023-04-15T15:20:14.135Z,2.45
2023-04-15T15:22:41.074Z,3.42
2023-04-15T15:25:08.428Z,2.60
2023-04-15T15:27:38.110Z,9.73
2023-04-15T15:30:07.166Z,4.20
2023-04-15T15:32:34.750Z,3.42
2023-04-15T15:35:02.366Z,5.35
2023-04-15T15:37:30.930Z,2.95
2023-04-15T15:39:57.995Z,2.93
2023-04-15T15:42:25.491Z,3.30
2023-04-15T15:44:53.245Z,2.80
2023-04-15T15:47:22.167Z,2.97
2023-04-15T15:49:49.250Z,2.78
2023-04-15T15:52:16.367Z,3.37
2023-04-15T15:54:43.583Z,5.03
2023-04-15T15:57:11.356Z,2.70
2023-04-15T15:59:41.234Z,3.00
2023-04-15T16:02:13.469Z,3.50
2023-04-15T16:04:41.730Z,2.17
2023-04-15T16:07:10.196Z,3.62
2023-04-15T16:09:37.536Z,2.37
2023-04-15T16:12:04.765Z,1.55
2023-04-15T16:14:31.978Z,3.33
2023-04-15T16:16:59.497Z,2.53
2023-04-15T16:19:26.472Z,3.70
2023-04-15T16:21:54.138Z,4.05
2023-04-15T16:24:21.431Z,1.35
2023-04-15T16:26:48.428Z,2.70
2023-04-15T16:29:15.777Z,4.00
2023-04-15T16:31:43.539Z,4.43
2023-04-15T16:34:10.626Z,1.60
2023-04-15T16:36:40.789Z,1.23
2023-04-15T16:39:07.913Z,2.10
2023-04-15T16:41:35.718Z,3.30
2023-04-15T16:44:03.570Z,3.97
2023-04-15T16:46:31.057Z,3.33
2023-04-15T16:48:58.375Z,4.28
2023-04-15T16:51:26.393Z,8.02
2023-04-15T16:53:54.398Z,5.30
2023-04-15T16:56:22.132Z,6.90
2023-04-15T16:58:49.672Z,4.53
2023-04-15T17:01:17.177Z,4.65
2023-04-15T17:03:45.105Z,4.68
2023-04-15T17:06:17.871Z,3.07
2023-04-15T17:08:45.088Z,3.22
2023-04-15T17:11:12.522Z,4.43
2023-04-15T17:13:39.805Z,3.40
2023-04-15T17:16:19.024Z,5.37
2023-04-15T17:18:47.556Z,4.50
2023-04-15T17:21:16.659Z,3.87
2023-04-15T17:23:43.463Z,3.42
2023-04-15T17:26:10.781Z,3.87
2023-04-15T17:28:38.512Z,3.72
2023-04-15T17:31:06.203Z,3.90
2023-04-15T17:34:00.882Z,5.28
2023-04-15T17:36:20.294Z,4.20
2023-04-15T17:38:47.400Z,10.75
2023-04-15T17:41:14.911Z,8.52
2023-04-15T17:43:43.863Z,12.53
2023-04-15T17:46:19.993Z,12.73
2023-04-15T17:48:48.256Z,14.20
2023-04-15T17:51:15.751Z,14.40
2023-04-15T17:53:45.329Z,15.35
2023-04-15T17:56:15.972Z,18.53
2023-04-15T17:58:44.196Z,20.05
2023-04-15T18:01:12.375Z,22.13
2023-04-15T18:03:41.046Z,38.85
2023-04-15T18:06:08.158Z,26.87
2023-04-15T18:08:35.572Z,33.27
2023-04-15T18:11:02.569Z,24.67
2023-04-15T18:13:30.376Z,16.37
2023-04-15T18:15:58.088Z,14.87
2023-04-15T18:18:26.113Z,14.87
2023-04-15T18:20:53.575Z,16.40
2023-04-15T18:23:21.830Z,17.15
2023-04-15T18:25:49.222Z,13.10
2023-04-15T18:28:16.848Z,11.60
2023-04-15T18:30:44.277Z,12.13
2023-04-15T18:33:12.301Z,12.33
2023-04-15T18:35:43.143Z,10.27
2023-04-15T18:38:10.580Z,13.48
2023-04-15T18:40:38.584Z,12.13
2023-04-15T18:43:09.042Z,13.18
2023-04-15T18:45:37.173Z,15.73
2023-04-15T18:48:05.617Z,19.15
2023-04-15T18:50:32.763Z,15.25
2023-04-15T18:53:03.840Z,18.12
2023-04-15T18:55:31.921Z,18.83
2023-04-15T18:58:08.919Z,19.63
2023-04-15T19:00:40.977Z,19.33
2023-04-15T19:03:08.423Z,17.25
2023-04-15T19:05:37.024Z,19.90
2023-04-15T19:08:05.944Z,20.62
2023-04-15T19:10:35.109Z,19.73
2023-04-15T19:13:13.223Z,22.42
2023-04-15T19:15:41.352Z,18.23
2023-04-15T19:18:11.212Z,16.83
2023-04-15T19:20:40.268Z,19.33
2023-04-15T19:23:09.067Z,17.43
2023-04-15T19:25:38.627Z,18.87
2023-04-15T19:28:05.991Z,17.27
2023-04-15T19:30:33.259Z,22.65
2023-04-15T19:33:01.588Z,21.77
2023-04-15T19:35:32.084Z,24.80
2023-04-15T19:38:00.035Z,24.12
2023-04-15T19:40:27.742Z,22.13
2023-04-15T19:42:55.964Z,18.58
2023-04-15T19:45:23.729Z,19.70
2023-04-15T19:47:51.725Z,26.20
2023-04-15T19:50:25.021Z,28.80
2023-04-15T19:52:53.385Z,25.00
2023-04-15T19:55:20.703Z,23.98
2023-04-15T19:57:49.317Z,23.50
2023-04-15T20:00:17.501Z,31.73
2023-04-15T20:02:45.959Z,31.25
2023-04-15T20:05:14.496Z,31.35
2023-04-15T20:07:48.248Z,29.45
2023-04-15T20:10:15.856Z,30.45
2023-04-15T20:12:50.904Z,28.67
2023-04-15T20:15:24.191Z,31.62
2023-04-15T20:17:52.378Z,29.95
2023-04-15T20:20:20.260Z,31.37
2023-04-15T20:22:48.573Z,26.77
2023-04-15T20:25:16.488Z,32.63
2023-04-15T20:27:44.076Z,26.58
2023-04-15T20:30:13.220Z,30.83
2023-04-15T20:32:40.611Z,30.67
2023-04-15T20:35:09.325Z,48.78
2023-04-15T20:37:38.100Z,71.37
2023-04-15T20:40:07.843Z,59.90
2023-04-15T20:42:35.941Z,61.65
2023-04-15T20:45:03.807Z,64.43
2023-04-15T20:47:31.064Z,56.58
2023-04-15T20:49:58.652Z,62.70
2023-04-15T20:52:26.434Z,77.43
2023-04-15T20:54:53.500Z,72.68
2023-04-15T20:57:21.297Z,73.18
2023-04-15T20:59:48.782Z,62.40
2023-04-15T21:02:16.896Z,51.43
2023-04-15T21:04:44.145Z,46.17
2023-04-15T21:07:11.058Z,41.35
2023-04-15T21:09:41.306Z,35.08
2023-04-15T21:12:09.285Z,34.38
2023-04-15T21:14:37.103Z,37.00
2023-04-15T21:17:09.362Z,36.53
2023-04-15T21:19:38.349Z,38.88
2023-04-15T21:22:05.737Z,44.13
2023-04-15T21:24:32.697Z,44.15
2023-04-15T21:26:59.736Z,46.27
2023-04-15T21:29:27.031Z,45.60
2023-04-15T21:31:54.184Z,44.90
2023-04-15T21:34:21.653Z,40.78
2023-04-15T21:36:48.719Z,41.15
2023-04-15T21:39:15.923Z,43.57
2023-04-15T21:41:42.851Z,38.95
2023-04-15T21:44:10.796Z,35.28
2023-04-15T21:46:39.023Z,41.45
2023-04-15T21:49:07.089Z,35.30
2023-04-15T21:51:34.837Z,33.40
2023-04-15T21:54:01.821Z,32.15
2023-04-15T21:56:28.796Z,47.78
2023-04-15T21:58:57.233Z,63.40
2023-04-15T22:01:25.194Z,60.00
2023-04-15T22:03:52.856Z,48.60
2023-04-15T22:06:20.269Z,43.53
2023-04-15T22:08:56.085Z,46.83
2023-04-15T22:11:34.082Z,41.30
2023-04-15T22:14:01.377Z,38.58
2023-04-15T22:16:28.794Z,39.50
2023-04-15T22:18:56.069Z,45.30
2023-04-15T22:21:23.834Z,39.58
2023-04-15T22:23:51.420Z,34.38
2023-04-15T22:26:18.489Z,28.42
2023-04-15T22:28:45.612Z,25.63
2023-04-15T22:31:13.793Z,25.40
2023-04-15T22:33:41.358Z,23.48
2023-04-15T22:36:08.273Z,25.83
2023-04-15T22:38:35.772Z,21.60
2023-04-15T22:41:02.995Z,18.90
2023-04-15T22:43:29.994Z,18.15
2023-04-15T22:45:57.377Z,21.35
2023-04-15T22:48:24.650Z,20.10
2023-04-15T22:50:52.079Z,19.30
2023-04-15T22:53:20.320Z,18.10
2023-04-15T22:55:48.729Z,20.05
2023-04-15T22:58:17.200Z,19.10
2023-04-15T23:00:44.870Z,17.08
2023-04-15T23:03:12.709Z,15.90
2023-04-15T23:05:42.704Z,15.83
2023-04-15T23:08:09.833Z,14.98
2023-04-15T23:10:40.081Z,18.90
2023-04-15T23:13:07.115Z,13.45
2023-04-15T23:15:34.424Z,17.62
2023-04-15T23:18:02.563Z,12.97
2023-04-15T23:20:29.576Z,14.15
2023-04-15T23:22:56.522Z,13.65
2023-04-15T23:25:24.098Z,13.45
2023-04-15T23:27:51.229Z,14.57
2023-04-15T23:30:18.297Z,14.17
2023-04-15T23:32:45.667Z,12.15
2023-04-15T23:35:12.684Z,14.25
2023-04-15T23:37:39.862Z,12.60
2023-04-15T23:40:07.650Z,13.05
2023-04-15T23:42:34.709Z,14.50
2023-04-15T23:45:02.060Z,11.02
2023-04-15T23:47:29.144Z,11.32
2023-04-15T23:49:56.524Z,11.32
2023-04-15T23:52:24.087Z,10.50
2023-04-15T23:54:51.050Z,12.27
2023-04-15T23:57:18.879Z,11.38
2023-04-15T23:59:46.312Z,10.77
